Time;durP1;ratioP1;P1;durP2;ratioP2;P2;SDS_P1;SDS_P2;PMS_P1;PMS_P2;Temp;Humidity;BMP_temperature;BMP_pressure;BME280_temperature;BME280_humidity;BME280_pressure;Samples;Min_cycle;Max_cycle;Signal;HPM_P1;HPM_P2
2020/12/02 00:00:14;;;;;;;48.25;23.40;;;1.20;95.10;;;;;;5034309;28;20376;-79
2020/12/02 00:02:50;;;;;;;44.85;21.27;;;1.20;95.20;;;;;;5034610;28;20025;-78
2020/12/02 00:05:17;;;;;;;52.15;23.25;;;1.10;95.10;;;;;;5034071;28;20400;-76
2020/12/02 00:07:44;;;;;;;56.10;24.27;;;1.00;95.10;;;;;;5033983;28;20026;-76
2020/12/02 00:10:10;;;;;;;45.97;22.08;;;1.00;95.50;;;;;;5033842;28;20048;-76
2020/12/02 00:12:35;;;;;;;52.15;23.30;;;1.00;95.40;;;;;;5032447;28;20030;-76
2020/12/02 00:15:04;;;;;;;50.28;22.30;;;1.00;95.40;;;;;;5033980;28;20057;-77
2020/12/02 00:17:30;;;;;;;56.40;23.90;;;1.00;95.40;;;;;;5032829;28;20059;-77
2020/12/02 00:19:55;;;;;;;49.70;22.60;;;1.00;95.40;;;;;;5033878;28;20055;-77
2020/12/02 00:22:23;;;;;;;53.78;24.15;;;1.00;95.40;;;;;;5049217;28;20026;-77
2020/12/02 00:24:50;;;;;;;69.20;27.02;;;0.90;95.30;;;;;;5032596;28;20376;-78
2020/12/02 00:27:27;;;;;;;62.45;26.45;;;0.90;95.40;;;;;;5034103;28;20017;-76
2020/12/02 00:29:54;;;;;;;52.95;24.08;;;0.90;95.60;;;;;;5033848;28;20496;-79
2020/12/02 00:32:33;;;;;;;56.38;24.48;;;0.90;95.60;;;;;;5032425;28;20030;-74
2020/12/02 00:34:59;;;;;;;57.75;24.67;;;0.90;95.60;;;;;;5033537;28;20032;-76
2020/12/02 00:37:27;;;;;;;68.85;26.67;;;0.90;95.50;;;;;;5032309;28;20034;-75
2020/12/02 00:39:53;;;;;;;72.15;28.05;;;0.90;95.50;;;;;;5032204;28;20029;-76
2020/12/02 00:42:20;;;;;;;71.55;28.90;;;0.90;95.70;;;;;;5033384;28;20029;-76
2020/12/02 00:44:46;;;;;;;57.53;24.40;;;0.90;96.00;;;;;;5032212;28;20032;-77
2020/12/02 00:47:17;;;;;;;58.38;25.40;;;1.00;96.10;;;;;;5033329;28;20025;-76
2020/12/02 00:49:43;;;;;;;57.13;24.95;;;1.00;96.10;;;;;;5033404;28;20025;-77
2020/12/02 00:52:10;;;;;;;52.67;23.38;;;1.10;96.20;;;;;;5033217;28;20028;-76
2020/12/02 00:54:36;;;;;;;60.45;24.25;;;1.20;96.30;;;;;;5033029;28;20032;-77
2020/12/02 00:57:03;;;;;;;54.88;24.65;;;1.20;96.20;;;;;;5033150;28;20026;-78
2020/12/02 00:59:31;;;;;;;62.53;25.90;;;1.20;96.10;;;;;;5032479;28;20488;-76
2020/12/02 01:02:19;;;;;;;60.28;25.02;;;1.20;96.10;;;;;;5032507;28;20055;-77
2020/12/02 01:04:46;;;;;;;53.22;22.65;;;1.20;96.10;;;;;;5033071;28;20461;-76
2020/12/02 01:07:13;;;;;;;62.63;25.33;;;1.20;96.10;;;;;;5031665;28;20041;-77
2020/12/02 01:09:39;;;;;;;60.65;24.80;;;1.20;96.00;;;;;;5032789;28;20040;-76
2020/12/02 01:12:06;;;;;;;50.28;22.27;;;1.20;96.00;;;;;;5032751;28;20025;-76
2020/12/02 01:14:32;;;;;;;59.45;25.23;;;1.20;96.00;;;;;;5032694;28;20022;-76
2020/12/02 01:16:59;;;;;;;63.25;25.08;;;1.20;96.00;;;;;;5032758;28;20057;-75
2020/12/02 01:19:30;;;;;;;57.45;22.10;;;1.20;96.10;;;;;;5031504;28;20083;-76
2020/12/02 01:22:19;;;;;;;55.35;23.80;;;1.20;96.10;;;;;;5032656;28;20471;-76
2020/12/02 01:25:11;;;;;;;67.93;27.00;;;1.10;95.90;;;;;;5032651;28;20471;-76
2020/12/02 01:28:01;;;;;;;60.25;24.70;;;1.10;95.90;;;;;;5032776;28;20133;-76
2020/12/02 01:30:27;;;;;;;69.00;28.05;;;1.10;96.10;;;;;;5032427;28;20038;-76
2020/12/02 01:32:52;;;;;;;54.10;24.45;;;1.10;96.20;;;;;;5032625;28;20030;-76
2020/12/02 01:35:27;;;;;;;56.05;25.17;;;1.10;96.20;;;;;;5031532;28;20140;-76
2020/12/02 01:38:03;;;;;;;59.22;24.38;;;1.10;96.50;;;;;;5032471;28;20460;-76
2020/12/02 01:40:34;;;;;;;54.65;23.83;;;1.20;96.30;;;;;;5032234;28;20419;-76
2020/12/02 01:43:07;;;;;;;55.60;23.95;;;1.20;96.30;;;;;;5032590;28;20025;-76
2020/12/02 01:45:40;;;;;;;61.00;23.88;;;1.20;96.20;;;;;;5032377;28;20021;-75
2020/12/02 01:48:35;;;;;;;52.13;22.38;;;1.20;96.40;;;;;;5032198;28;20026;-75
2020/12/02 01:51:19;;;;;;;58.70;22.75;;;1.20;96.30;;;;;;5032450;28;20017;-75
2020/12/02 01:53:54;;;;;;;59.85;22.48;;;1.20;96.30;;;;;;5032344;28;20102;-75
2020/12/02 01:56:37;;;;;;;56.47;23.10;;;1.20;96.10;;;;;;5032345;28;20033;-76
2020/12/02 01:59:06;;;;;;;50.55;22.67;;;1.20;96.20;;;;;;5031801;28;20048;-75
2020/12/02 02:01:56;;;;;;;51.97;21.38;;;1.20;96.20;;;;;;5032001;28;20029;-76
2020/12/02 02:04:32;;;;;;;53.85;22.40;;;1.20;96.30;;;;;;5031104;28;20028;-74
2020/12/02 02:07:16;;;;;;;58.55;22.88;;;1.20;96.30;;;;;;5032097;28;20064;-77
2020/12/02 02:09:43;;;;;;;60.53;23.30;;;1.20;96.40;;;;;;5032167;28;20031;-76
2020/12/02 02:12:31;;;;;;;56.92;21.80;;;1.20;96.50;;;;;;5031745;28;20032;-76
2020/12/02 02:15:15;;;;;;;48.47;21.83;;;1.30;96.50;;;;;;5032267;28;20376;-77
2020/12/02 02:17:41;;;;;;;57.63;22.52;;;1.30;96.40;;;;;;5032105;28;20022;-77
2020/12/02 02:20:08;;;;;;;59.00;22.75;;;1.20;96.30;;;;;;5031948;28;20079;-76
2020/12/02 02:22:34;;;;;;;51.38;20.80;;;1.30;96.30;;;;;;5032069;28;20034;-76
2020/12/02 02:25:02;;;;;;;55.67;22.40;;;1.30;96.40;;;;;;5031014;28;20574;-75
2020/12/02 02:27:29;;;;;;;54.78;21.88;;;1.30;96.30;;;;;;5032255;28;20812;-76
2020/12/02 02:29:56;;;;;;;58.72;23.20;;;1.20;96.30;;;;;;5031220;28;20035;-76
2020/12/02 02:32:25;;;;;;;57.92;22.48;;;1.20;96.50;;;;;;5032243;28;20209;-77
2020/12/02 02:34:55;;;;;;;59.08;24.05;;;1.30;96.50;;;;;;5032068;28;20025;-77
2020/12/02 02:37:24;;;;;;;54.40;22.20;;;1.30;96.50;;;;;;5032023;28;20072;-77
2020/12/02 02:39:50;;;;;;;57.80;23.33;;;1.30;96.40;;;;;;5031795;28;20025;-77
2020/12/02 02:42:38;;;;;;;55.00;22.80;;;1.30;96.50;;;;;;5031805;28;20018;-77
2020/12/02 02:45:17;;;;;;;59.65;22.83;;;1.30;96.60;;;;;;5031716;28;20014;-76
2020/12/02 02:47:44;;;;;;;52.13;21.08;;;1.30;96.40;;;;;;5030393;28;20023;-76
2020/12/02 02:50:13;;;;;;;45.70;20.00;;;1.30;96.60;;;;;;5031693;28;20049;-76
2020/12/02 02:52:41;;;;;;;53.40;20.58;;;1.30;96.50;;;;;;5032055;28;20037;-76
2020/12/02 02:55:14;;;;;;;53.40;20.70;;;1.30;96.20;;;;;;5032159;28;20025;-75
2020/12/02 02:57:40;;;;;;;49.70;20.95;;;1.20;96.10;;;;;;5031722;28;20021;-76
2020/12/02 03:00:10;;;;;;;66.65;23.92;;;1.20;96.10;;;;;;5031699;28;20041;-77
2020/12/02 03:02:36;;;;;;;64.63;23.80;;;1.10;96.30;;;;;;5031754;28;20026;-75
2020/12/02 03:05:03;;;;;;;54.40;21.23;;;1.10;96.40;;;;;;5031459;28;20500;-75
2020/12/02 03:07:29;;;;;;;56.10;20.45;;;1.10;96.30;;;;;;5031607;28;20029;-75
2020/12/02 03:09:55;;;;;;;56.88;22.20;;;1.10;96.30;;;;;;5031892;28;20022;-76
2020/12/02 03:12:21;;;;;;;47.25;21.27;;;1.10;96.30;;;;;;5032095;28;20029;-76
2020/12/02 03:14:47;;;;;;;45.88;18.27;;;1.00;96.30;;;;;;5031946;28;20025;-75
2020/12/02 03:17:20;;;;;;;55.25;21.83;;;1.00;96.30;;;;;;5031957;28;20026;-76
2020/12/02 03:20:05;;;;;;;53.17;20.45;;;1.00;96.30;;;;;;5031771;28;20044;-76
2020/12/02 03:22:31;;;;;;;41.88;17.95;;;1.00;96.40;;;;;;5030067;28;20078;-76
2020/12/02 03:24:58;;;;;;;56.65;21.45;;;1.00;96.70;;;;;;5034243;28;20099;-75
2020/12/02 03:27:25;;;;;;;48.75;19.50;;;1.00;96.40;;;;;;5034165;28;20022;-76
2020/12/02 03:29:51;;;;;;;52.08;21.02;;;1.00;96.50;;;;;;5034839;28;20022;-77
2020/12/02 03:32:17;;;;;;;51.63;22.55;;;1.00;96.50;;;;;;5034747;28;20504;-76
2020/12/02 03:34:43;;;;;;;38.95;17.77;;;1.00;96.60;;;;;;5034719;28;20021;-76
2020/12/02 03:37:09;;;;;;;49.00;19.67;;;1.00;96.60;;;;;;5035018;28;20415;-77
2020/12/02 03:39:35;;;;;;;57.08;22.27;;;1.00;96.50;;;;;;5033340;28;20029;-77
2020/12/02 03:42:00;;;;;;;36.35;16.92;;;1.00;96.60;;;;;;5035013;28;20471;-77
2020/12/02 03:44:26;;;;;;;47.08;19.42;;;1.00;96.60;;;;;;5034841;28;20079;-77
2020/12/02 03:46:52;;;;;;;45.35;20.08;;;1.00;96.60;;;;;;5034706;28;20030;-77
2020/12/02 03:49:18;;;;;;;40.78;17.90;;;1.00;96.70;;;;;;5034549;28;20052;-77
2020/12/02 03:51:43;;;;;;;49.55;20.70;;;1.00;96.70;;;;;;5034514;28;20499;-77
2020/12/02 03:54:10;;;;;;;51.78;19.80;;;1.00;96.70;;;;;;5034543;28;20025;-76
2020/12/02 03:56:36;;;;;;;40.72;18.50;;;1.00;96.60;;;;;;5034493;28;20033;-77
2020/12/02 03:59:02;;;;;;;40.78;18.42;;;1.00;96.70;;;;;;5034142;28;20041;-78
2020/12/02 04:01:27;;;;;;;42.50;18.35;;;1.00;96.70;;;;;;5034151;28;20395;-77
2020/12/02 04:03:54;;;;;;;46.80;20.48;;;1.00;96.70;;;;;;5034187;28;20127;-77
2020/12/02 04:06:20;;;;;;;32.15;16.00;;;1.00;96.70;;;;;;5032869;28;20063;-77
2020/12/02 04:08:45;;;;;;;37.38;16.77;;;1.00;96.70;;;;;;5034151;28;20028;-77
2020/12/02 04:11:13;;;;;;;37.55;16.90;;;1.00;96.60;;;;;;5034088;28;20030;-77
2020/12/02 04:13:39;;;;;;;35.45;16.98;;;1.00;96.60;;;;;;5033946;28;20022;-76
2020/12/02 04:16:05;;;;;;;43.72;19.08;;;0.90;96.60;;;;;;5033977;28;20030;-76
2020/12/02 04:18:31;;;;;;;34.30;16.33;;;0.90;96.60;;;;;;5033724;28;20033;-76
2020/12/02 04:20:57;;;;;;;40.85;17.77;;;0.90;96.70;;;;;;5033795;28;20033;-77
2020/12/02 04:23:23;;;;;;;29.40;14.77;;;0.90;96.60;;;;;;5032620;28;20484;-77
2020/12/02 04:25:49;;;;;;;43.55;19.08;;;0.90;96.80;;;;;;5033759;28;20022;-76
2020/12/02 04:28:15;;;;;;;35.08;15.93;;;0.90;96.70;;;;;;5033972;28;20029;-77
2020/12/02 04:30:43;;;;;;;33.60;15.40;;;0.90;96.80;;;;;;5033558;28;20384;-77
2020/12/02 04:33:10;;;;;;;35.38;16.90;;;0.90;96.80;;;;;;5033156;28;20025;-77
2020/12/02 04:35:37;;;;;;;31.65;15.63;;;0.90;96.80;;;;;;5032957;28;20104;-76
2020/12/02 04:38:03;;;;;;;32.72;16.25;;;0.90;96.80;;;;;;5033491;28;20486;-76
2020/12/02 04:40:33;;;;;;;31.00;14.98;;;0.90;96.90;;;;;;5031856;28;20025;-77
2020/12/02 04:43:18;;;;;;;29.67;15.32;;;0.90;96.80;;;;;;5032135;28;20412;-76
2020/12/02 04:45:44;;;;;;;27.80;13.93;;;0.90;96.80;;;;;;5033267;28;20361;-76
2020/12/02 04:48:18;;;;;;;33.33;15.45;;;0.90;96.80;;;;;;5031792;28;20028;-76
2020/12/02 04:50:44;;;;;;;30.65;14.23;;;0.90;96.90;;;;;;5031425;28;20108;-77
2020/12/02 04:53:19;;;;;;;32.67;16.75;;;0.90;96.90;;;;;;5032615;28;20121;-77
2020/12/02 04:55:48;;;;;;;34.45;18.00;;;0.90;96.90;;;;;;5032485;28;20471;-76
2020/12/02 04:58:25;;;;;;;27.30;15.02;;;1.00;97.10;;;;;;5032662;28;20032;-76
2020/12/02 05:00:51;;;;;;;23.25;12.93;;;1.00;97.10;;;;;;5033139;28;20029;-77
2020/12/02 05:03:16;;;;;;;26.80;14.75;;;0.90;97.20;;;;;;5031654;28;20036;-77
2020/12/02 05:05:43;;;;;;;26.58;13.15;;;1.00;97.00;;;;;;5032823;28;20026;-76
2020/12/02 05:08:35;;;;;;;27.90;14.68;;;1.00;97.00;;;;;;5032788;28;20035;-77
2020/12/02 05:11:08;;;;;;;27.13;15.37;;;0.90;96.90;;;;;;5032375;28;20511;-77
2020/12/02 05:13:34;;;;;;;34.63;19.27;;;1.00;97.00;;;;;;5032495;28;20056;-79
2020/12/02 05:16:10;;;;;;;39.72;21.50;;;0.90;97.10;;;;;;5032503;28;20065;-77
2020/12/02 05:18:36;;;;;;;50.67;23.35;;;0.90;96.90;;;;;;5032731;28;20038;-79
2020/12/02 05:21:18;;;;;;;54.78;27.23;;;0.90;96.90;;;;;;5032070;28;20033;-78
2020/12/02 05:24:04;;;;;;;73.45;32.53;;;0.90;97.00;;;;;;5030878;28;20376;-76
2020/12/02 05:26:33;;;;;;;72.50;33.33;;;0.90;97.00;;;;;;5032046;28;20040;-78
2020/12/02 05:29:03;;;;;;;59.97;28.38;;;0.90;97.10;;;;;;5031124;28;20053;-77
2020/12/02 05:31:32;;;;;;;57.28;26.77;;;0.90;97.20;;;;;;5031764;28;20464;-81
2020/12/02 05:34:14;;;;;;;65.90;29.02;;;0.90;97.20;;;;;;5032339;28;20060;-81
2020/12/02 05:36:46;;;;;;;41.08;21.27;;;1.00;97.20;;;;;;5031524;28;20061;-81
2020/12/02 05:39:32;;;;;;;48.35;23.83;;;1.00;97.20;;;;;;5032258;28;20101;-81
2020/12/02 05:41:59;;;;;;;63.90;26.85;;;1.00;97.20;;;;;;5032409;28;20033;-81
2020/12/02 05:44:32;;;;;;;53.28;25.40;;;1.00;97.30;;;;;;5032553;28;20018;-81
2020/12/02 05:47:01;;;;;;;45.97;23.02;;;1.00;97.40;;;;;;5030335;28;20057;-80
2020/12/02 05:49:38;;;;;;;44.17;21.02;;;1.10;97.40;;;;;;5032871;28;20540;-81
2020/12/02 05:52:14;;;;;;;45.70;22.00;;;1.20;97.50;;;;;;5032475;28;20543;-82
2020/12/02 05:54:40;;;;;;;51.72;22.48;;;1.20;97.50;;;;;;5030606;28;20022;-79
2020/12/02 05:57:07;;;;;;;48.65;22.42;;;1.20;97.50;;;;;;5031686;28;20033;-79
2020/12/02 05:59:33;;;;;;;47.45;23.20;;;1.30;97.60;;;;;;5031658;28;20053;-78
2020/12/02 06:02:01;;;;;;;48.92;23.00;;;1.30;97.60;;;;;;5029564;28;20037;-80
2020/12/02 06:04:26;;;;;;;54.70;24.33;;;1.30;97.60;;;;;;5031484;28;20697;-79
2020/12/02 06:06:54;;;;;;;48.30;23.50;;;1.40;97.50;;;;;;5031333;28;20018;-79
2020/12/02 06:09:28;;;;;;;52.63;25.00;;;1.40;97.50;;;;;;5031306;28;20022;-82
2020/12/02 06:12:02;;;;;;;49.47;24.65;;;1.40;97.60;;;;;;5031578;28;20018;-81
2020/12/02 06:14:33;;;;;;;50.40;24.33;;;1.40;97.50;;;;;;5031528;28;20018;-81
2020/12/02 06:17:02;;;;;;;48.83;24.05;;;1.50;97.80;;;;;;5031802;28;20164;-81
2020/12/02 06:19:44;;;;;;;50.33;24.30;;;1.50;97.40;;;;;;5031580;28;20094;-81
2020/12/02 06:22:10;;;;;;;50.97;24.13;;;1.50;97.50;;;;;;5030157;28;20026;-81
2020/12/02 06:24:39;;;;;;;46.60;23.65;;;1.50;97.50;;;;;;5030076;28;20041;-81
2020/12/02 06:27:16;;;;;;;45.60;22.70;;;1.50;97.50;;;;;;5031624;28;20104;-81
2020/12/02 06:29:46;;;;;;;47.15;23.83;;;1.50;97.50;;;;;;5031128;28;20025;-81
2020/12/02 06:32:17;;;;;;;47.03;22.45;;;1.50;97.40;;;;;;5031273;28;20501;-81
2020/12/02 06:34:43;;;;;;;51.60;23.55;;;1.50;97.50;;;;;;5030384;28;20388;-82
2020/12/02 06:37:09;;;;;;;48.10;22.65;;;1.60;97.50;;;;;;5031640;28;20041;-81
2020/12/02 06:39:37;;;;;;;49.20;24.00;;;1.50;97.40;;;;;;5030955;28;20030;-82
2020/12/02 06:42:28;;;;;;;49.63;22.35;;;1.50;97.40;;;;;;5031276;28;20416;-81
2020/12/02 06:45:24;;;;;;;49.83;24.50;;;1.50;97.40;;;;;;5030166;28;20387;-77
2020/12/02 06:47:49;;;;;;;45.90;22.92;;;1.50;97.40;;;;;;5030583;28;20064;-79
2020/12/02 06:50:17;;;;;;;42.35;21.85;;;1.50;97.30;;;;;;5031097;28;20057;-80
2020/12/02 06:52:43;;;;;;;51.13;25.70;;;1.50;97.40;;;;;;5038410;28;20037;-80
2020/12/02 06:55:14;;;;;;;49.42;25.50;;;1.60;97.50;;;;;;5049998;28;20468;-79
2020/12/02 06:57:41;;;;;;;49.35;24.67;;;1.60;97.50;;;;;;5053592;28;20077;-78
2020/12/02 07:00:17;;;;;;;45.88;24.25;;;1.60;97.50;;;;;;5054957;28;20518;-78
2020/12/02 07:02:53;;;;;;;59.17;27.25;;;1.70;97.60;;;;;;5054713;28;20029;-79
2020/12/02 07:05:39;;;;;;;49.25;25.35;;;1.70;97.50;;;;;;5053518;28;20033;-79
2020/12/02 07:08:40;;;;;;;48.45;24.33;;;1.70;97.50;;;;;;5054253;28;20021;-80
2020/12/02 07:11:18;;;;;;;46.50;23.83;;;1.70;97.50;;;;;;5032057;28;20112;-80
2020/12/02 07:13:47;;;;;;;52.95;24.85;;;1.70;97.50;;;;;;5052065;28;20056;-80
2020/12/02 07:16:31;;;;;;;50.70;23.88;;;1.70;97.40;;;;;;5054990;28;20044;-79
2020/12/02 07:19:12;;;;;;;57.15;26.00;;;1.70;97.50;;;;;;5053493;28;20025;-79
2020/12/02 07:21:51;;;;;;;55.42;25.30;;;1.70;97.50;;;;;;5053209;28;20037;-81
2020/12/02 07:24:28;;;;;;;55.58;25.58;;;1.70;97.50;;;;;;5051990;28;20467;-80
2020/12/02 07:26:55;;;;;;;58.67;27.60;;;1.70;97.50;;;;;;5053760;28;20029;-78
2020/12/02 07:29:24;;;;;;;46.55;23.10;;;1.70;97.50;;;;;;5052017;28;20025;-79
2020/12/02 07:32:04;;;;;;;52.05;27.00;;;1.70;97.50;;;;;;5053105;28;20108;-80
2020/12/02 07:34:31;;;;;;;55.50;28.58;;;1.70;97.50;;;;;;5053345;28;20033;-80
2020/12/02 07:37:25;;;;;;;60.97;28.25;;;1.70;97.50;;;;;;5053329;28;20113;-80
2020/12/02 07:39:58;;;;;;;61.40;27.83;;;1.70;97.40;;;;;;5050264;28;20041;-80
2020/12/02 07:42:29;;;;;;;69.60;31.45;;;1.80;97.60;;;;;;5053456;28;20376;-81
2020/12/02 07:45:13;;;;;;;69.95;31.00;;;1.80;97.60;;;;;;5053568;28;20414;-79
2020/12/02 07:47:59;;;;;;;72.13;32.00;;;1.80;97.70;;;;;;5053709;28;20051;-79
2020/12/02 07:50:46;;;;;;;73.38;31.95;;;1.90;97.70;;;;;;5053418;28;20040;-79
2020/12/02 07:53:36;;;;;;;90.35;40.08;;;2.00;97.80;;;;;;5053831;28;20440;-79
2020/12/02 07:56:05;;;;;;;63.13;29.23;;;2.00;97.90;;;;;;5051739;28;20060;-80
2020/12/02 07:58:34;;;;;;;68.72;30.83;;;2.10;97.90;;;;;;5052645;28;20048;-81
2020/12/02 08:01:16;;;;;;;70.78;28.85;;;2.20;97.90;;;;;;5053200;28;20029;-80
2020/12/02 08:03:43;;;;;;;66.78;29.15;;;2.30;97.90;;;;;;5051619;28;20336;-81
2020/12/02 08:06:30;;;;;;;59.20;25.98;;;2.30;97.80;;;;;;5052817;28;20147;-80
2020/12/02 08:08:56;;;;;;;48.30;23.42;;;2.30;97.90;;;;;;5052324;28;20071;-82
2020/12/02 08:11:21;;;;;;;42.03;21.77;;;2.40;97.90;;;;;;5052563;28;20422;-80
2020/12/02 08:13:53;;;;;;;32.95;17.98;;;2.40;97.80;;;;;;5052729;28;20079;-81
2020/12/02 08:16:30;;;;;;;44.10;20.50;;;2.40;97.80;;;;;;5052453;28;20021;-81
2020/12/02 08:18:57;;;;;;;37.13;18.20;;;2.50;97.70;;;;;;5052587;28;20025;-80
2020/12/02 08:21:26;;;;;;;39.22;18.95;;;2.40;97.60;;;;;;5053106;28;20451;-79
2020/12/02 08:24:19;;;;;;;39.90;19.90;;;2.40;97.70;;;;;;5052640;28;20032;-80
2020/12/02 08:26:47;;;;;;;41.25;20.88;;;2.50;97.70;;;;;;5051535;28;20032;-80
2020/12/02 08:29:23;;;;;;;38.80;18.65;;;2.50;97.80;;;;;;5052857;28;20021;-80
2020/12/02 08:32:06;;;;;;;40.05;18.25;;;2.50;97.80;;;;;;5053442;28;20032;-80
2020/12/02 08:34:34;;;;;;;34.67;16.77;;;2.60;97.90;;;;;;5052492;28;20033;-79
2020/12/02 08:37:19;;;;;;;30.88;16.00;;;2.60;97.90;;;;;;5051259;28;20052;-74
2020/12/02 08:39:47;;;;;;;32.10;15.80;;;2.70;97.90;;;;;;5052631;28;20108;-79
2020/12/02 08:42:35;;;;;;;33.05;16.55;;;2.70;97.80;;;;;;5052529;28;20482;-82
2020/12/02 08:45:24;;;;;;;29.50;15.82;;;2.70;97.80;;;;;;5051270;28;20048;-81
2020/12/02 08:47:57;;;;;;;30.92;15.70;;;2.80;98.00;;;;;;5052900;28;20032;-82
2020/12/02 08:50:29;;;;;;;32.38;17.00;;;2.90;98.00;;;;;;5053764;28;20159;-81
2020/12/02 08:52:57;;;;;;;32.10;16.23;;;3.00;98.00;;;;;;5051376;28;20079;-78
2020/12/02 08:55:23;;;;;;;42.05;19.75;;;3.00;98.00;;;;;;5053094;28;20544;-82
2020/12/02 08:57:49;;;;;;;30.25;17.20;;;3.10;98.00;;;;;;5053533;28;20025;-85
2020/12/02 09:00:20;;;;;;;33.70;17.45;;;3.10;97.80;;;;;;5054209;28;20514;-81
2020/12/02 09:02:46;;;;;;;35.85;20.02;;;3.10;97.90;;;;;;5052714;28;20459;-81
2020/12/02 09:05:12;;;;;;;37.38;20.45;;;3.20;97.90;;;;;;5052422;28;20162;-80
2020/12/02 09:07:38;;;;;;;40.05;23.25;;;3.10;97.70;;;;;;5051214;28;20104;-80
2020/12/02 09:10:05;;;;;;;41.95;21.98;;;3.20;97.80;;;;;;5050705;28;20083;-80
2020/12/02 09:12:31;;;;;;;35.55;21.35;;;3.20;97.90;;;;;;5052311;28;20100;-81
2020/12/02 09:14:57;;;;;;;46.13;22.83;;;3.30;97.90;;;;;;5052125;28;20109;-79
2020/12/02 09:17:23;;;;;;;57.17;25.88;;;3.30;97.80;;;;;;5050850;28;20037;-81
2020/12/02 09:19:50;;;;;;;71.85;30.17;;;3.30;97.80;;;;;;5052191;28;20474;-80
2020/12/02 09:22:17;;;;;;;47.00;24.05;;;3.30;97.80;;;;;;5051523;28;20113;-80
2020/12/02 09:24:44;;;;;;;66.70;27.88;;;3.30;97.70;;;;;;5050345;28;20032;-80
2020/12/02 09:27:11;;;;;;;57.70;28.13;;;3.30;97.70;;;;;;5052147;28;20013;-81
2020/12/02 09:29:36;;;;;;;58.55;26.02;;;3.30;97.70;;;;;;5051890;28;20013;-80
2020/12/02 09:32:02;;;;;;;50.85;24.90;;;3.30;97.70;;;;;;5051896;28;20502;-79
2020/12/02 09:34:28;;;;;;;51.08;23.98;;;3.40;97.70;;;;;;5051901;28;20471;-80
2020/12/02 09:36:53;;;;;;;63.22;27.85;;;3.40;97.70;;;;;;5051923;28;20131;-81
2020/12/02 09:39:20;;;;;;;56.83;27.77;;;3.40;97.60;;;;;;5051966;28;20505;-79
2020/12/02 09:42:05;;;;;;;56.00;30.02;;;3.40;97.50;;;;;;5051691;28;20029;-79
2020/12/02 09:44:40;;;;;;;61.33;30.90;;;3.30;97.30;;;;;;5051622;28;20379;-80
2020/12/02 09:47:12;;;;;;;52.35;28.45;;;3.30;97.40;;;;;;5051821;28;20025;-79
2020/12/02 09:49:40;;;;;;;58.10;31.67;;;3.20;97.40;;;;;;5051950;28;20434;-81
2020/12/02 09:52:09;;;;;;;70.68;37.25;;;3.20;97.30;;;;;;5051414;28;20047;-80
2020/12/02 09:54:40;;;;;;;82.22;43.95;;;3.20;97.40;;;;;;5051699;28;20107;-80
2020/12/02 09:57:29;;;;;;;76.95;40.38;;;3.20;97.50;;;;;;5051645;28;20024;-81
2020/12/02 09:59:57;;;;;;;81.90;40.72;;;3.20;97.50;;;;;;5051375;28;20048;-80
2020/12/02 10:02:57;;;;;;;65.20;33.35;;;3.20;97.50;;;;;;5051391;28;20092;-80
2020/12/02 10:05:59;;;;;;;60.10;29.52;;;3.20;97.50;;;;;;5051352;28;20033;-81
2020/12/02 10:08:41;;;;;;;60.72;29.45;;;3.30;97.50;;;;;;5051413;28;20025;-80
2020/12/02 10:11:20;;;;;;;64.55;30.73;;;3.20;97.20;;;;;;5051085;28;20021;-81
2020/12/02 10:14:18;;;;;;;78.50;34.78;;;3.10;97.20;;;;;;5050069;28;20036;-80
2020/12/02 10:17:15;;;;;;;51.10;23.20;;;3.00;97.00;;;;;;5051303;28;20068;-79
2020/12/02 10:20:09;;;;;;;41.17;21.67;;;2.90;97.10;;;;;;5049899;28;20025;-81
2020/12/02 10:22:41;;;;;;;39.85;20.92;;;2.90;97.10;;;;;;5050138;28;20116;-79
2020/12/02 10:25:45;;;;;;;40.53;21.65;;;2.80;97.00;;;;;;5051597;28;20071;-81
2020/12/02 10:28:46;;;;;;;43.75;23.33;;;2.70;97.10;;;;;;5043134;28;20082;-79
2020/12/02 10:31:25;;;;;;;47.67;24.15;;;2.70;97.20;;;;;;5051606;28;20036;-80
2020/12/02 10:34:14;;;;;;;44.88;23.00;;;2.70;97.20;;;;;;5054265;28;20406;-80
2020/12/02 10:36:44;;;;;;;47.75;23.75;;;2.60;97.00;;;;;;5053993;28;20029;-80
2020/12/02 10:39:18;;;;;;;46.00;24.55;;;2.50;96.90;;;;;;5055474;28;20028;-81
2020/12/02 10:41:49;;;;;;;56.80;27.17;;;2.50;96.90;;;;;;5054137;28;20090;-80
2020/12/02 10:44:17;;;;;;;55.05;26.77;;;2.40;97.00;;;;;;5055125;28;20021;-81
2020/12/02 10:47:17;;;;;;;60.22;26.95;;;2.40;97.10;;;;;;5054166;28;20519;-79
2020/12/02 10:49:45;;;;;;;56.22;27.25;;;2.50;97.30;;;;;;5055216;28;20378;-81
2020/12/02 10:52:16;;;;;;;63.20;30.23;;;2.50;97.20;;;;;;5055180;28;20374;-83
2020/12/02 10:54:45;;;;;;;42.25;21.25;;;2.50;97.20;;;;;;5054826;28;20017;-81
2020/12/02 10:57:25;;;;;;;33.03;18.27;;;2.50;97.20;;;;;;5055014;28;20028;-81
2020/12/02 10:59:57;;;;;;;36.45;19.17;;;2.50;97.10;;;;;;5055362;28;20045;-80
2020/12/02 11:02:31;;;;;;;51.35;26.42;;;2.50;97.20;;;;;;5053942;28;20025;-81
2020/12/02 11:04:58;;;;;;;61.28;28.30;;;2.50;97.10;;;;;;5055203;28;20028;-81
2020/12/02 11:07:42;;;;;;;61.67;29.83;;;2.50;97.20;;;;;;5054493;28;20471;-79
2020/12/02 11:10:17;;;;;;;75.57;37.08;;;2.50;97.10;;;;;;5054423;28;20506;-80
2020/12/02 11:13:03;;;;;;;71.50;35.63;;;2.40;97.00;;;;;;5054408;28;20100;-81
2020/12/02 11:15:54;;;;;;;40.08;22.52;;;2.40;96.90;;;;;;5054402;28;20025;-78
2020/12/02 11:18:29;;;;;;;42.13;23.02;;;2.30;96.90;;;;;;5054333;28;20031;-80
2020/12/02 11:21:13;;;;;;;46.53;25.42;;;2.30;97.00;;;;;;5054718;28;20047;-82
2020/12/02 11:24:00;;;;;;;44.13;22.50;;;2.30;97.10;;;;;;5054039;28;20036;-81
2020/12/02 11:26:33;;;;;;;50.05;25.25;;;2.30;97.00;;;;;;5054324;28;20481;-83
2020/12/02 11:29:00;;;;;;;52.42;28.20;;;2.30;96.90;;;;;;5054139;28;20031;-81
2020/12/02 11:31:47;;;;;;;48.55;24.63;;;2.20;96.90;;;;;;5054043;28;20033;-82
2020/12/02 11:34:43;;;;;;;42.22;22.60;;;2.20;97.00;;;;;;5053692;28;20027;-82
2020/12/02 11:37:35;;;;;;;48.03;23.98;;;2.20;97.10;;;;;;5053877;28;20105;-81
2020/12/02 11:40:18;;;;;;;57.13;28.98;;;2.20;97.20;;;;;;5054001;28;20071;-81
2020/12/02 11:43:01;;;;;;;54.03;27.85;;;2.30;97.20;;;;;;5053206;28;20375;-82
2020/12/02 11:45:35;;;;;;;51.00;25.88;;;2.30;97.20;;;;;;5053818;28;20021;-80
2020/12/02 11:48:27;;;;;;;61.03;31.67;;;2.30;97.30;;;;;;5053620;28;20442;-82
2020/12/02 11:51:14;;;;;;;81.75;38.83;;;2.30;97.40;;;;;;5055219;28;20362;-83
2020/12/02 11:53:40;;;;;;;57.25;31.08;;;2.40;97.40;;;;;;5053367;28;20032;-81
2020/12/02 11:56:09;;;;;;;95.75;41.92;;;2.50;97.50;;;;;;5054376;28;20025;-81
2020/12/02 11:58:34;;;;;;;63.80;25.70;;;2.50;97.30;;;;;;5053661;28;20041;-83
2020/12/02 12:01:21;;;;;;;99.20;43.15;;;2.50;97.20;;;;;;5053533;28;20032;-82
2020/12/02 12:04:16;;;;;;;82.63;37.42;;;2.50;97.20;;;;;;5053684;28;20020;-81
2020/12/02 12:06:44;;;;;;;62.55;31.70;;;2.50;97.20;;;;;;5053082;28;20025;-82
2020/12/02 12:09:28;;;;;;;62.67;33.15;;;2.50;97.20;;;;;;5052783;28;20045;-82
2020/12/02 12:12:01;;;;;;;45.97;25.17;;;2.40;97.10;;;;;;5053540;28;20082;-82
2020/12/02 12:14:41;;;;;;;;;;;2.50;97.30;;;;;;5055077;28;20071;-81
2020/12/02 12:17:19;;;;;;;49.45;25.45;;;2.50;97.30;;;;;;5054743;28;19952;-81
2020/12/02 12:19:45;;;;;;;55.83;27.48;;;2.50;97.20;;;;;;5052534;28;20421;-81
2020/12/02 12:22:31;;;;;;;68.72;31.05;;;2.50;97.40;;;;;;5051835;28;20029;-82
2020/12/02 12:25:05;;;;;;;51.40;24.65;;;2.60;97.40;;;;;;5053677;28;20052;-81
2020/12/02 12:27:31;;;;;;;60.50;26.92;;;2.50;97.20;;;;;;5054412;28;20051;-81
2020/12/02 12:29:57;;;;;;;56.13;24.65;;;2.60;97.20;;;;;;5056615;28;20100;-82
2020/12/02 12:32:34;;;;;;;62.15;28.05;;;2.50;97.10;;;;;;5053997;28;20073;-81
2020/12/02 12:35:10;;;;;;;85.35;31.42;;;2.50;97.10;;;;;;5053672;28;20021;-81
2020/12/02 12:38:04;;;;;;;83.05;39.40;;;2.50;97.10;;;;;;5053294;28;20405;-80
2020/12/02 12:40:37;;;;;;;73.38;36.42;;;2.50;97.10;;;;;;5053249;28;20040;-83
2020/12/02 12:43:05;;;;;;;;;;;2.50;97.00;;;;;;5052717;28;20100;-82
2020/12/02 12:45:48;;;;;;;82.95;41.30;;;2.50;97.10;;;;;;5053385;28;19959;-83
2020/12/02 12:48:20;;;;;;;78.55;41.33;;;2.50;97.10;;;;;;5053564;28;20021;-83
2020/12/02 12:50:49;;;;;;;80.60;36.30;;;2.50;97.10;;;;;;5053121;28;20025;-81
2020/12/02 12:53:17;;;;;;;86.97;40.00;;;2.50;97.10;;;;;;5053292;28;20064;-82
2020/12/02 12:55:43;;;;;;;64.20;32.22;;;2.40;96.90;;;;;;5053598;28;20901;-85
2020/12/02 12:58:13;;;;;;;74.68;35.03;;;2.40;96.80;;;;;;5052970;28;20029;-84
2020/12/02 13:00:41;;;;;;;64.55;30.65;;;2.30;96.70;;;;;;5052930;28;20029;-84
2020/12/02 13:03:17;;;;;;;68.57;32.15;;;2.20;96.70;;;;;;5051928;28;20049;-85
2020/12/02 13:05:50;;;;;;;43.20;22.27;;;2.20;96.80;;;;;;5053754;28;20403;-84
2020/12/02 13:08:24;;;;;;;35.55;18.08;;;2.20;96.90;;;;;;5052968;28;20424;-84